createdAt,value
2019-04-21T00:01:12.483Z,54.92
2019-04-21T00:03:48.558Z,55.07
2019-04-21T00:06:36.997Z,55.63
2019-04-21T00:09:12.859Z,55.71
2019-04-21T00:11:39.096Z,55.73
2019-04-21T00:14:03.726Z,55.95
2019-04-21T00:16:32.212Z,55.75
2019-04-21T00:19:03.434Z,56.65
2019-04-21T00:21:37.769Z,56.03
2019-04-21T00:24:23.679Z,56.45
2019-04-21T00:27:18.575Z,57.01
2019-04-21T00:29:40.999Z,56.70
2019-04-21T00:32:03.443Z,57.26
2019-04-21T00:34:19.636Z,57.36
2019-04-21T00:37:04.360Z,57.21
2019-04-21T00:39:49.094Z,57.70
2019-04-21T00:42:16.873Z,57.62
2019-04-21T00:44:36.771Z,58.21
2019-04-21T00:47:14.090Z,58.08
2019-04-21T00:49:53.505Z,58.00
2019-04-21T00:57:53.187Z,58.74
2019-04-21T01:00:18.750Z,59.49
2019-04-21T01:02:59.392Z,60.01
2019-04-21T01:05:21.486Z,59.81
2019-04-21T01:07:56.225Z,59.40
2019-04-21T01:10:19.823Z,59.78
2019-04-21T01:12:56.310Z,59.57
2019-04-21T01:17:59.345Z,59.89
2019-04-21T01:20:17.261Z,59.93
2019-04-21T01:22:43.068Z,59.82
2019-04-21T01:25:24.124Z,59.96
2019-04-21T01:27:58.771Z,60.28
2019-04-21T01:30:41.062Z,60.64
2019-04-21T01:33:12.407Z,60.57
2019-04-21T01:35:45.383Z,60.36
2019-04-21T01:38:14.219Z,60.83
2019-04-21T01:40:48.683Z,61.05
2019-04-21T01:43:16.578Z,60.05
2019-04-21T01:45:51.964Z,60.42
2019-04-21T01:48:21.638Z,60.08
2019-04-21T01:50:51.169Z,61.47
2019-04-21T01:53:34.780Z,60.87
2019-04-21T01:56:03.377Z,60.71
2019-04-21T01:58:25.692Z,60.61
2019-04-21T02:01:00.853Z,61.55
2019-04-21T02:08:44.817Z,61.87
2019-04-21T02:11:21.800Z,62.29
2019-04-21T02:13:53.350Z,61.75
2019-04-21T02:16:18.547Z,62.14
2019-04-21T02:18:52.954Z,62.53
2019-04-21T02:21:18.150Z,61.53
2019-04-21T02:24:01.778Z,62.16
2019-04-21T02:26:28.053Z,61.52
2019-04-21T02:29:02.023Z,61.90
2019-04-21T02:34:27.577Z,61.87
2019-04-21T02:36:57.979Z,62.49
2019-04-21T02:41:51.809Z,62.28
2019-04-21T02:44:23.363Z,62.75
2019-04-21T02:46:46.362Z,63.68
2019-04-21T02:52:01.717Z,63.43
2019-04-21T02:57:07.034Z,62.96
2019-04-21T02:59:33.936Z,63.49
2019-04-21T03:02:31.390Z,64.01
2019-04-21T03:04:53.129Z,63.82
2019-04-21T03:07:34.714Z,63.88
2019-04-21T03:09:57.886Z,63.38
2019-04-21T03:12:28.662Z,63.52
2019-04-21T03:17:43.610Z,64.19
2019-04-21T03:22:42.696Z,64.71
2019-04-21T03:25:26.881Z,64.52
2019-04-21T03:30:33.375Z,64.67
2019-04-21T03:33:23.997Z,64.47
2019-04-21T03:36:04.851Z,64.70
2019-04-21T03:38:00.236Z,65.25
2019-04-21T03:40:19.675Z,64.99
2019-04-21T03:42:58.601Z,65.26
2019-04-21T03:45:32.642Z,65.48
2019-04-21T03:48:01.497Z,65.65
2019-04-21T03:53:03.518Z,65.02
2019-04-21T03:58:19.666Z,65.39
2019-04-21T04:01:05.894Z,65.32
2019-04-21T04:11:31.667Z,65.72
2019-04-21T04:13:55.994Z,66.34
2019-04-21T04:16:20.204Z,65.66
2019-04-21T04:24:05.009Z,65.81
2019-04-21T04:26:32.361Z,66.44
2019-04-21T04:31:37.565Z,66.04
2019-04-21T04:39:28.075Z,66.41
2019-04-21T04:47:10.232Z,65.81
2019-04-21T04:49:46.785Z,65.64
2019-04-21T04:57:13.842Z,65.27
2019-04-21T04:59:47.756Z,65.26
2019-04-21T05:04:58.690Z,65.03
2019-04-21T05:07:27.278Z,65.55
2019-04-21T05:09:55.531Z,65.21
2019-04-21T05:12:26.761Z,65.18
2019-04-21T05:14:53.318Z,64.63
2019-04-21T05:22:33.502Z,64.37
2019-04-21T05:24:55.249Z,64.29
2019-04-21T05:27:38.655Z,64.03
2019-04-21T05:30:22.156Z,64.05
2019-04-21T05:32:58.297Z,63.81
2019-04-21T05:35:39.198Z,63.84
2019-04-21T05:38:10.428Z,63.85
2019-04-21T05:40:39.873Z,63.26
2019-04-21T05:43:25.970Z,63.13
2019-04-21T05:45:52.008Z,63.55
2019-04-21T05:48:35.337Z,63.02
2019-04-21T05:51:03.655Z,63.17
2019-04-21T05:53:39.422Z,63.76
2019-04-21T05:56:12.490Z,63.47
2019-04-21T05:58:43.640Z,61.59
2019-04-21T06:01:37.697Z,61.81
2019-04-21T06:04:17.138Z,62.36
2019-04-21T06:06:40.889Z,63.40
2019-04-21T06:09:15.776Z,63.39
2019-04-21T06:11:45.897Z,63.12
2019-04-21T06:14:14.489Z,63.54
2019-04-21T06:16:48.268Z,63.25
2019-04-21T06:19:26.607Z,60.47
2019-04-21T06:21:51.321Z,63.24
2019-04-21T06:24:21.868Z,62.86
2019-04-21T06:29:31.510Z,62.70
2019-04-21T06:34:43.824Z,63.09
2019-04-21T06:37:30.467Z,62.51
2019-04-21T06:42:21.227Z,63.72
2019-04-21T06:44:50.737Z,61.94
2019-04-21T06:47:15.513Z,63.49
2019-04-21T06:49:42.803Z,63.68
2019-04-21T06:52:31.808Z,62.54
2019-04-21T06:54:51.104Z,62.46
2019-04-21T06:57:23.129Z,62.00
2019-04-21T06:59:54.218Z,63.05
2019-04-21T07:02:36.481Z,61.06
2019-04-21T07:04:54.366Z,61.48
2019-04-21T07:07:26.247Z,61.17
2019-04-21T07:10:01.425Z,45.38
2019-04-21T07:12:32.176Z,47.86
2019-04-21T07:15:21.851Z,57.43
2019-04-21T07:17:35.831Z,60.27
2019-04-21T07:20:07.233Z,60.18
2019-04-21T07:22:36.885Z,60.97
2019-04-21T07:25:10.768Z,61.40
2019-04-21T07:27:41.529Z,60.19
2019-04-21T07:30:14.974Z,59.94
2019-04-21T07:32:47.461Z,61.97
2019-04-21T07:35:19.566Z,61.95
2019-04-21T07:37:48.142Z,60.71
2019-04-21T07:40:14.912Z,58.87
2019-04-21T07:42:46.679Z,58.92
2019-04-21T07:45:17.945Z,57.46
2019-04-21T07:48:16.097Z,57.72
2019-04-21T07:50:38.577Z,58.67
2019-04-21T07:53:21.266Z,58.47
2019-04-21T07:58:14.911Z,58.47
2019-04-21T08:00:52.975Z,57.79
2019-04-21T08:03:21.960Z,57.32
2019-04-21T08:05:59.184Z,57.44
2019-04-21T08:08:26.848Z,56.16
2019-04-21T08:10:56.738Z,57.29
2019-04-21T08:13:41.537Z,55.93
2019-04-21T08:16:07.701Z,55.80
2019-04-21T08:21:07.194Z,55.40
2019-04-21T08:23:36.801Z,54.28
2019-04-21T08:26:09.205Z,52.98
2019-04-21T08:28:47.396Z,51.76
2019-04-21T08:31:16.869Z,51.89
2019-04-21T08:36:25.029Z,51.05
2019-04-21T08:38:53.663Z,50.20
2019-04-21T08:41:23.061Z,49.18
2019-04-21T08:43:51.919Z,48.82
2019-04-21T08:46:31.556Z,47.79
2019-04-21T08:49:04.052Z,47.32
2019-04-21T08:51:33.980Z,48.31
2019-04-21T08:54:16.107Z,48.94
2019-04-21T08:56:46.721Z,48.10
2019-04-21T08:59:31.350Z,47.85
2019-04-21T09:02:06.308Z,47.27
2019-04-21T09:04:37.794Z,46.81
2019-04-21T09:07:15.635Z,46.06
2019-04-21T09:09:41.546Z,45.38
2019-04-21T09:12:10.667Z,43.99
2019-04-21T09:14:46.907Z,44.29
2019-04-21T09:17:13.249Z,42.94
2019-04-21T09:22:17.935Z,43.35
2019-04-21T09:24:53.576Z,43.18
2019-04-21T09:27:21.745Z,44.49
2019-04-21T09:29:43.637Z,41.30
2019-04-21T09:32:14.607Z,41.33
2019-04-21T09:34:43.830Z,39.74
2019-04-21T09:37:24.044Z,40.16
2019-04-21T09:39:48.408Z,41.46
2019-04-21T09:42:18.432Z,38.86
2019-04-21T09:44:51.873Z,39.34
2019-04-21T09:47:22.928Z,39.52
2019-04-21T09:49:50.447Z,38.89
2019-04-21T09:52:25.674Z,39.49
2019-04-21T09:55:03.688Z,38.43
2019-04-21T09:57:36.633Z,37.25
2019-04-21T10:00:05.036Z,37.20
2019-04-21T10:02:40.005Z,36.62
2019-04-21T10:04:59.788Z,37.23
2019-04-21T10:07:35.600Z,36.26
2019-04-21T10:10:01.562Z,35.54
2019-04-21T10:12:32.869Z,36.42
2019-04-21T10:15:04.292Z,35.21
2019-04-21T10:17:39.498Z,34.22
2019-04-21T10:20:11.631Z,34.61
2019-04-21T10:22:41.839Z,33.38
2019-04-21T10:25:12.585Z,33.34
2019-04-21T10:27:43.166Z,31.23
2019-04-21T10:30:14.228Z,32.69
2019-04-21T10:32:44.412Z,33.82
2019-04-21T10:35:15.259Z,33.00
2019-04-21T10:37:58.189Z,31.25
2019-04-21T10:40:19.763Z,30.02
2019-04-21T10:42:50.063Z,31.28
2019-04-21T10:45:21.161Z,30.85
2019-04-21T10:47:52.714Z,31.54
2019-04-21T10:50:22.992Z,31.94
2019-04-21T10:53:11.219Z,31.39
2019-04-21T10:55:57.868Z,29.75
2019-04-21T10:58:18.330Z,29.93
2019-04-21T11:00:51.562Z,29.19
2019-04-21T11:03:40.496Z,28.14
2019-04-21T11:06:12.749Z,28.55
2019-04-21T11:08:46.975Z,28.92
2019-04-21T11:11:16.124Z,30.18
2019-04-21T11:13:46.589Z,27.39
2019-04-21T11:16:17.267Z,27.05
2019-04-21T11:18:48.542Z,27.13
2019-04-21T11:21:18.829Z,27.39
2019-04-21T11:23:50.054Z,26.91
2019-04-21T11:26:20.286Z,25.03
2019-04-21T11:28:50.558Z,26.60
2019-04-21T11:31:20.989Z,26.32
2019-04-21T11:33:51.268Z,25.23
2019-04-21T11:36:21.687Z,24.73
2019-04-21T11:39:16.820Z,22.49
2019-04-21T11:41:33.996Z,24.03
2019-04-21T11:44:05.022Z,23.44
2019-04-21T11:46:36.285Z,21.70
2019-04-21T11:49:08.369Z,22.75
2019-04-21T11:51:38.485Z,19.43
2019-04-21T11:54:08.794Z,19.09
2019-04-21T11:56:39.034Z,22.53
2019-04-21T11:59:10.117Z,20.43
2019-04-21T12:01:41.329Z,21.09
2019-04-21T12:04:11.754Z,21.29
2019-04-21T12:06:46.677Z,22.26
2019-04-21T12:09:14.698Z,19.48
2019-04-21T12:11:45.329Z,20.56
2019-04-21T12:14:16.263Z,19.54
2019-04-21T12:16:48.740Z,21.63
2019-04-21T12:19:18.790Z,20.32
2019-04-21T12:21:58.868Z,19.71
2019-04-21T12:24:21.525Z,20.68
2019-04-21T12:26:51.824Z,19.56
2019-04-21T12:29:22.800Z,20.12
2019-04-21T12:32:01.381Z,19.92
2019-04-21T12:34:34.178Z,18.92
2019-04-21T12:37:04.647Z,18.68
2019-04-21T12:39:34.825Z,18.86
2019-04-21T12:42:04.916Z,19.48
2019-04-21T12:44:34.873Z,18.69
2019-04-21T12:47:05.843Z,19.58
2019-04-21T12:49:35.933Z,20.13
2019-04-21T12:52:06.037Z,19.63
2019-04-21T12:54:37.546Z,20.19
2019-04-21T12:57:08.010Z,19.73
2019-04-21T12:59:39.520Z,20.09
2019-04-21T13:02:09.763Z,20.51
2019-04-21T13:04:40.112Z,19.04
2019-04-21T13:07:11.310Z,20.36
2019-04-21T13:09:42.044Z,20.41
2019-04-21T13:12:13.123Z,20.50
2019-04-21T13:14:44.030Z,19.90
2019-04-21T13:17:15.161Z,20.37
2019-04-21T13:19:45.361Z,21.57
2019-04-21T13:22:16.127Z,20.80
2019-04-21T13:24:47.524Z,21.76
2019-04-21T13:27:17.824Z,21.94
2019-04-21T13:29:48.280Z,22.86
2019-04-21T13:32:18.626Z,23.32
2019-04-21T13:34:48.601Z,23.89
2019-04-21T13:37:19.474Z,23.19
2019-04-21T13:40:13.154Z,25.48
2019-04-21T13:42:36.592Z,24.33
2019-04-21T13:45:04.066Z,22.51
2019-04-21T13:47:32.939Z,22.20
2019-04-21T13:50:07.083Z,23.21
2019-04-21T13:52:38.443Z,22.39
2019-04-21T13:55:09.648Z,22.36
2019-04-21T13:57:40.928Z,22.65
2019-04-21T14:00:13.058Z,23.82
2019-04-21T14:02:44.761Z,22.91
2019-04-21T14:05:15.870Z,22.55
2019-04-21T14:07:46.254Z,22.43
2019-04-21T14:10:17.972Z,22.77
2019-04-21T14:12:48.907Z,22.94
2019-04-21T14:15:20.292Z,22.14
2019-04-21T14:17:50.941Z,22.48
2019-04-21T14:20:21.684Z,22.74
2019-04-21T14:22:52.005Z,22.69
2019-04-21T14:25:22.165Z,21.89
2019-04-21T14:27:54.077Z,22.36
2019-04-21T14:30:26.277Z,22.02
2019-04-21T14:32:56.416Z,23.62
2019-04-21T14:35:29.367Z,22.38
2019-04-21T14:38:00.506Z,23.30
2019-04-21T14:40:33.224Z,22.97
2019-04-21T14:43:02.707Z,23.72
2019-04-21T14:45:50.646Z,24.11
2019-04-21T14:48:39.188Z,22.99
2019-04-21T14:51:20.752Z,23.62
2019-04-21T14:53:56.363Z,23.72
2019-04-21T14:56:27.138Z,23.24
2019-04-21T14:58:59.487Z,23.49
2019-04-21T15:01:30.036Z,23.31
2019-04-21T15:04:01.555Z,23.03
2019-04-21T15:06:31.701Z,23.23
2019-04-21T15:09:02.924Z,21.99
2019-04-21T15:11:33.787Z,22.06
2019-04-21T15:14:04.139Z,21.74
2019-04-21T15:16:36.647Z,20.00
2019-04-21T15:19:06.827Z,21.52
2019-04-21T15:21:37.584Z,21.34
2019-04-21T15:24:08.711Z,20.91
2019-04-21T15:26:40.120Z,19.60
2019-04-21T15:29:11.297Z,20.18
2019-04-21T15:31:44.623Z,19.23
2019-04-21T15:34:13.214Z,19.87
2019-04-21T15:36:46.238Z,19.00
2019-04-21T15:39:16.373Z,18.25
2019-04-21T15:41:46.371Z,18.43
2019-04-21T15:44:18.584Z,19.25
2019-04-21T15:46:49.989Z,19.40
2019-04-21T15:49:20.797Z,19.25
2019-04-21T15:51:51.841Z,18.02
2019-04-21T15:54:22.653Z,17.98
2019-04-21T15:56:57.089Z,19.74
2019-04-21T15:59:32.615Z,20.20
2019-04-21T16:02:04.493Z,18.58
2019-04-21T16:04:34.683Z,18.26
2019-04-21T16:07:07.763Z,19.30
2019-04-21T16:09:37.760Z,20.06
2019-04-21T16:12:07.748Z,18.35
2019-04-21T16:14:38.624Z,18.14
2019-04-21T16:17:09.523Z,18.35
2019-04-21T16:19:39.653Z,17.84
2019-04-21T16:22:10.786Z,18.25
2019-04-21T16:24:42.037Z,17.71
2019-04-21T16:27:12.643Z,17.36
2019-04-21T16:29:43.879Z,17.22
2019-04-21T16:32:16.149Z,18.00
2019-04-21T16:34:53.680Z,18.68
2019-04-21T16:37:17.487Z,17.58
2019-04-21T16:39:47.543Z,17.69
2019-04-21T16:42:18.307Z,17.51
2019-04-21T16:44:49.167Z,17.25
2019-04-21T16:47:19.479Z,18.44
2019-04-21T16:49:49.854Z,18.34
2019-04-21T16:52:23.642Z,18.39
2019-04-21T16:55:12.843Z,17.04
2019-04-21T16:57:57.984Z,18.22
2019-04-21T17:02:52.388Z,19.28
2019-04-21T17:05:22.541Z,21.09
2019-04-21T17:07:53.678Z,20.22
2019-04-21T17:10:24.564Z,20.98
2019-04-21T17:12:56.056Z,22.33
2019-04-21T17:15:46.070Z,33.09
2019-04-21T17:16:31.939Z,18.32
2019-04-21T17:18:18.259Z,27.33
2019-04-21T17:20:41.834Z,29.39
2019-04-21T17:23:05.080Z,27.53
2019-04-21T17:25:35.304Z,28.45
2019-04-21T17:28:05.985Z,29.21
2019-04-21T17:30:36.731Z,28.12
2019-04-21T17:33:11.208Z,26.96
2019-04-21T17:35:38.703Z,26.43
2019-04-21T17:38:09.955Z,24.95
2019-04-21T17:40:40.180Z,25.96
2019-04-21T17:43:14.382Z,26.29
2019-04-21T17:45:42.211Z,27.14
2019-04-21T17:48:15.873Z,26.88
2019-04-21T17:50:49.571Z,27.52
2019-04-21T17:53:30.411Z,26.44
2019-04-21T17:56:20.601Z,26.81
2019-04-21T17:58:43.307Z,28.37
2019-04-21T18:01:26.377Z,27.82
2019-04-21T18:04:03.791Z,28.05
2019-04-21T18:06:31.182Z,28.43
2019-04-21T18:09:11.448Z,29.33
2019-04-21T18:11:37.202Z,29.34
2019-04-21T18:13:47.283Z,29.70
2019-04-21T18:16:26.834Z,29.63
2019-04-21T18:18:50.671Z,30.49
2019-04-21T18:21:22.796Z,30.80
2019-04-21T18:24:04.838Z,30.37
2019-04-21T18:26:38.024Z,31.28
2019-04-21T18:29:01.059Z,32.54
2019-04-21T18:31:33.960Z,31.81
2019-04-21T18:34:10.989Z,31.78
2019-04-21T18:36:43.189Z,32.02
2019-04-21T18:39:29.929Z,31.71
2019-04-21T18:42:10.903Z,32.37
2019-04-21T18:44:53.845Z,32.77
2019-04-21T18:47:27.611Z,33.23
2019-04-21T18:49:40.903Z,32.90
2019-04-21T18:52:22.399Z,33.68
2019-04-21T18:55:03.582Z,33.48
2019-04-21T18:57:27.380Z,33.75
2019-04-21T18:59:51.322Z,34.02
2019-04-21T19:02:22.467Z,34.50
2019-04-21T19:04:55.832Z,35.02
2019-04-21T19:07:49.766Z,35.32
2019-04-21T19:10:22.828Z,35.92
2019-04-21T19:13:20.440Z,35.72
2019-04-21T19:15:16.314Z,36.04
2019-04-21T19:18:29.597Z,35.93
2019-04-21T19:20:25.144Z,36.15
2019-04-21T19:22:52.214Z,36.33
2019-04-21T19:25:27.013Z,36.70
2019-04-21T19:27:59.127Z,38.89
2019-04-21T19:33:03.438Z,37.29
2019-04-21T19:35:19.410Z,37.67
2019-04-21T19:37:57.069Z,37.24
2019-04-21T19:40:32.992Z,37.69
2019-04-21T19:43:03.413Z,38.01
2019-04-21T19:45:38.147Z,38.08
2019-04-21T19:48:12.303Z,38.46
2019-04-21T19:50:50.327Z,38.73
2019-04-21T19:53:07.344Z,38.35
2019-04-21T19:55:32.351Z,38.60
2019-04-21T19:58:03.162Z,39.11
2019-04-21T20:00:34.663Z,39.68
2019-04-21T20:03:06.261Z,39.78
2019-04-21T20:05:46.702Z,40.31
2019-04-21T20:08:23.692Z,40.71
2019-04-21T20:11:00.214Z,40.35
2019-04-21T20:13:40.788Z,40.86
2019-04-21T20:16:03.882Z,41.14
2019-04-21T20:18:26.157Z,40.98
2019-04-21T20:20:48.243Z,40.99
2019-04-21T20:23:24.996Z,41.73
2019-04-21T20:25:55.868Z,42.52
2019-04-21T20:28:38.789Z,43.29
2019-04-21T20:31:16.789Z,43.22
2019-04-21T20:34:00.639Z,43.13
2019-04-21T20:36:25.162Z,42.81
2019-04-21T20:38:40.488Z,43.78
2019-04-21T20:43:54.693Z,45.92
2019-04-21T20:46:24.910Z,46.62
2019-04-21T20:48:56.099Z,46.95
2019-04-21T20:51:27.188Z,45.65
2019-04-21T20:53:53.686Z,45.42
2019-04-21T20:56:21.131Z,46.08
2019-04-21T20:58:59.960Z,46.46
2019-04-21T21:01:34.902Z,46.34
2019-04-21T21:04:02.082Z,47.10
2019-04-21T21:06:33.699Z,52.77
2019-04-21T21:09:07.366Z,52.24
2019-04-21T21:11:43.534Z,49.20
2019-04-21T21:14:13.122Z,47.30
2019-04-21T21:16:46.156Z,47.69
2019-04-21T21:21:46.052Z,47.60
2019-04-21T21:24:29.028Z,47.72
2019-04-21T21:26:56.207Z,47.37
2019-04-21T21:29:31.562Z,46.84
2019-04-21T21:32:06.774Z,47.94
2019-04-21T21:34:35.938Z,48.19
2019-04-21T21:37:09.024Z,48.05
2019-04-21T21:39:43.903Z,48.34
2019-04-21T21:41:51.026Z,49.06
2019-04-21T21:44:21.882Z,48.54
2019-04-21T21:47:00.505Z,48.84
2019-04-21T21:49:33.696Z,50.22
2019-04-21T21:52:06.074Z,51.29
2019-04-21T21:54:25.695Z,52.07
2019-04-21T21:56:56.415Z,53.19
2019-04-21T21:59:31.077Z,54.46
2019-04-21T22:01:59.794Z,53.90
2019-04-21T22:04:32.455Z,53.45
2019-04-21T22:07:07.306Z,54.14
2019-04-21T22:09:34.516Z,53.56
2019-04-21T22:12:07.211Z,53.69
2019-04-21T22:14:41.538Z,53.55
2019-04-21T22:17:24.731Z,55.35
2019-04-21T22:20:05.379Z,56.84
2019-04-21T22:22:29.637Z,57.86
2019-04-21T22:24:55.627Z,57.82
2019-04-21T22:27:16.935Z,57.95
2019-04-21T22:29:51.769Z,58.97
2019-04-21T22:32:25.406Z,59.53
2019-04-21T22:34:56.525Z,59.04
2019-04-21T22:37:39.199Z,59.13
2019-04-21T22:40:08.363Z,55.19
2019-04-21T22:42:33.199Z,55.18
2019-04-21T22:44:58.924Z,54.97
2019-04-21T22:47:33.783Z,55.07
2019-04-21T22:50:00.686Z,54.87
2019-04-21T22:52:32.332Z,55.57
2019-04-21T22:55:08.183Z,54.33
2019-04-21T22:57:44.341Z,53.98
2019-04-21T23:00:11.828Z,54.12
2019-04-21T23:02:42.757Z,54.39
2019-04-21T23:05:20.999Z,55.15
2019-04-21T23:07:51.209Z,54.18
2019-04-21T23:10:19.534Z,54.59
2019-04-21T23:12:50.142Z,54.62
2019-04-21T23:15:28.263Z,54.52
2019-04-21T23:18:15.840Z,55.28
2019-04-21T23:20:43.629Z,55.46
2019-04-21T23:23:17.947Z,55.05
2019-04-21T23:25:44.118Z,54.97
2019-04-21T23:28:14.821Z,55.25
2019-04-21T23:30:56.060Z,55.80
2019-04-21T23:33:08.720Z,55.45
2019-04-21T23:35:41.777Z,55.15
2019-04-21T23:38:12.035Z,55.35
2019-04-21T23:40:48.484Z,55.51
2019-04-21T23:43:18.887Z,55.99
2019-04-21T23:45:46.209Z,55.73
2019-04-21T23:48:28.829Z,55.79
2019-04-21T23:50:55.695Z,56.65
2019-04-21T23:53:19.717Z,57.03
2019-04-21T23:55:49.852Z,56.98
2019-04-21T23:58:25.527Z,56.69
